This site, now in its 15th season, is a labour of love and fun from one of Ottawa's most avid time trialists and number crunchers. It adheres to and is permitted by the laws of Canada, promotes the objectives of every bicycle club whose results are shown, and is donated free of charge by myself for your enjoyment and usage. If you would like results from series you ride in to be shown here, give me (celia@drmath.ca) a shout!


Index Page
ATT OTT WTT AATT CFCTT VVVTT
Help resultformat:
Case-sensitive

OBC Open TT Series - 2018-Jul-19 - 15km (Rockliffe Pkwy)

Ottawa Weather (18:00): Mainly Sunny. Temp.erature: 29.0C, Wind: SW 17 gust 29km/h, Humidex: 30, Relative humidity: 29%, Dew point: 9C, Pressure: 101.7kPa, Visibility: 24km.
Ottawa Weather (19:00): Mainly Sunny. Temp.erature: 27.9C, Wind: SW 13km/h, Humidex: 30, Relative humidity: 34%, Dew point: 11C, Pressure: 101.7kPa, Visibility: 24km.
Ottawa Weather (20:00): Mainly Sunny. Temp.erature: 25.5C, Wind: SSW 20km/h, Humidex: 28, Relative humidity: 43%, Dew point: 12C, Pressure: 101.7kPa, Visibility: 24km.

Send photos with description (when/where/what) of yourself on or off of bike to celia@drmath.ca

 
 

BESTS?
 
1 Sherboneau, Mark RWR 19:15 46.753 1/56 VBM 1/14 1.0000
2 Purificati, Justin RWR 19:17 46.672 2/56 SEM 1/4 0.9218
3 Rendall, Glen  RWR 19:45 45.570 3/56 VBM 2/14 1.1129
4 St-Pierre, Martin RPO 19:50 45.378 4/56 VBM 3/14 1.0776
5 Diaz, Rodrigo  OBC/EUR 19:51 45.340 5/56 VBM 4/14 0.9750
6 Simard, Alexandre IND 20:32 43.831 6/56 VAM 1/6 1.0672
7 Pérès, Erwan IND 20:42 43.478 7/56 VBM 5/14 0.9548
8 Boileau, Greg NTF 20:53 43.097 8/56 VAM 2/6  
Y 9 Harrington, Benjamin OBC 20:57 42.959 9/56 CAM 1/2 1.0024
Y 10 Courteille, Anaïs & Weldon, Robbi --- 21:01 42.823 10/56 TAN 1/1 1.0483
11 Lafleur, Guillaume OBC 21:03 42.755 11/56 VAM 3/6 1.0167
Martins, Alex OBC 21:03 42.755 11/56 VBM 6/14 0.9555
13 Ross, Ron CLG 21:07 42.620 13/56 VCM 1/5 1.0310
14 Page, Graham OBC/NTF 21:40 41.538 14/56 VAM 4/6 0.9456
15 Girard, Nicolas OBC 21:43 41.443 15/56 CAM 2/2 1.0468
16 Burge, Craig  CYC 22:00 40.909 16/56 VCM 2/5 0.9553
17 Mullington, Chris WQW 22:04 40.785 17/56 VDM 1/10 0.8455
18 Manners, Mark OBC 22:15 40.449 18/56 VAM 5/6 1.0759
19 Gelinas, Brandon IND 22:22 40.238 19/56 SEM 2/4 0.8841
20 Corpuz, John OBC 22:28 40.059 20/56 VAM 6/6 0.9845
Redshaw, Russ  OBC 22:28 40.059 20/56 VDM 2/10 1.0247
22 Courtman, David OBC 22:43 39.618 22/56 VDM 3/10 1.0401
23 Wright, David OBC 22:51 39.387 23/56 VCM 3/5 0.9336
24 Rivoche, Michael WQW 22:52 39.359 24/56 VDM 4/10 0.9740
25 Manjikian, Sevak OBC 22:53 39.330 25/56 VBM 7/14 1.0511
26 Deschamps, Martin WQW 22:54 39.301 26/56 VBM 8/14 1.0488
27 Freundorfer, Peter OBC 23:00 39.130 27/56 SEM 3/4  
Momtahan, Parham  OBC 23:00 39.130 27/56 VDM 5/10  
29 Basu, Ben  OBC 23:10 38.849 29/56 VBM 9/14  
Messier, Jill WQW 23:10 38.849 29/56 SEF 1/1 0.9893
31 Buffa, Alex  OBC 23:44 37.921 31/56 VBM 10/14 1.1711
32 Milette, Laury CDO 23:45 37.895 32/56 CAF 1/4 0.9791
33 Corner, Doug  OBC 23:47 37.842 33/56 VDM 6/10 1.1157
34 Gilchrist, Ryan  OBC 23:49 37.789 34/56 VCM 4/5 1.0254
35 Dyck, Karly EUR 24:02 37.448 35/56 VAF 1/1  
36 Moerman, Bram  OBC 24:14 37.139 36/56 VEM 1/3 0.9335
37 Boulanger, Gaetan  IND 24:15 37.113 37/56 VEM 2/3 1.0312
38 Lavergne, Jazmine OBC 24:25 36.860 38/56 CAF 2/4 0.9696
39 Déry, Nicolas  OBC 24:26 36.835 39/56 VBM 11/14 1.0206
40 Williams, Mallory OBC 24:36 36.585 40/56 CAF 3/4 1.0020
41 Imbrogno, Giorgio  OBC 24:50 36.242 41/56 VDM 7/10 1.0122
42 Veilleux, François OBC 24:59 36.024 42/56 VBM 12/14 1.0385
43 Rudnicki, Dave WQW 25:01 35.976 43/56 VCM 5/5 0.7587
44 Martins, Henrique CDO 25:06 35.857 44/56 MIM 1/1 0.9074
45 Arsenault, Ariane CDO 25:10 35.762 45/56 CAF 4/4 0.9550
46 Burdett, Avery  OBC 25:16 35.620 46/56 VEM 3/3 1.0019
Hinz, Richard OBC 25:16 35.620 46/56 VDM 8/10 1.1978
48 Hauschildt, Gunter OBC 25:27 35.363 48/56 VBM 13/14 1.0621
49 Shand, Peter OBC 26:04 34.527 49/56 VDM 9/10 1.0154
50 Lavergne, Jayde OBC 26:22 34.134 50/56 MIF 1/1 1.0365
51 Fortier, Frederic OBC 26:24 34.091 51/56 VBM 14/14 1.0817
52 Tardif, Magalie OBC 26:39 33.771 52/56 JUF 1/1 1.0553
53 Monette, Gary WQW 27:06 33.210 53/56 VDM 10/10 1.0392
54 Whittey, Janet OBC 27:13 33.068 54/56 VCF 1/1 0.8972
55 McInnis, Celia  OBC 27:37 32.589 55/56 VDF 1/1 0.9258
56 Patterson, Craig OBC 27:46 32.413 56/56 SEM 4/4  
 
Average Speed of all of the above 56 finishes (840km in 21:46:08):38.587
>>>Average of the Average Speeds for these 56 finishes38.931<<<
 

The number of data records shown above is 56
The server processing of your query took: 0 wallclock secs ( 0.12 usr + 0.00 sys = 0.12 CPU)

Thanks to our Helpers: Michel Bernier, Mark Manners, Alex McKnight, Jess Raymond, Peter Tregunno

     


Mar 30 (Good Friday)
May 1 (10km) May 3 May 8 (10km) May 10 May 15 (10km) May 17 May 22 (10km) May 24 May 29 (10km) May 31
Jun 5 Jun 5 Jun 7 Jun 12 Jun 12 Jun 14 Jun 17 (40km) Jun 19 Jun 19 Jun 21 Jun 26 Jun 26 Jun 28
Jul 3 Jul 3 Jul 5 Jul 8 (40km) Jul 10 Jul 10 Jul 12 Jul 17 Jul 17
  Jul 19  
Jul 24 Jul 24 Jul 26 Jul 31 Jul 31
Aug 2 Aug 5 (40km) Aug 7 Aug 7 Aug 9 Aug 14 Aug 14 Aug 16 Aug 21 Aug 21 Aug 23 Aug 28 Aug 28 (Invitational) Aug 30#1 (Eddie Merckx) Aug 30#2 (With Aero)
Sep 2 (40km) Sep 4 Sep 6 Sep 11 Sep 13 Sep 18

OTT Rankings
Best       Best by category
WTT Rankings for All Participants
5 Best Speeds (≥3 15km, ≤1 10km)     5 Best Speeds (≥3 15km, ≤1 10km) by category
OTT Best Three 15km Rankings
Overall     by category     age-Hcap Female   age-Hcap Male
Other years
TT Calculator All TT People All TT events
ABC Home VVV Home
CKAP GOLD MEDAL
Other Links

Note: OTT data from 2003 through 2006-Apr-14 and 2007-Apr-06-? and WTT from 2008-? is taken from the official OBC site.

Please send your comments and suggestions to: Celia McInnis
Copyright © 1998-2011 Celia McInnis. All rights reserved. Links are welcomed.